Monday, March 2, 2015, 6:07 AM EST

KOFP, Hanover County Municipal

Location: Ashland, VA, United States Lat: 37.7
Local Time: 6:07 AM EST (11:07 GMT) Lon: -77.433
Time Zone: US/Eastern Elev: 203 ft

Show me the last for .
Show Decoded

2015-03-02 05:54 METAR KOFP 021054Z AUTO 21003KT 1 1/2SM BR OVC002 01/01 A3012 RMK AO2 SLP201
                 T00110006 =
2015-03-02 05:42 METAR KOFP 021042Z AUTO 21004KT 1 1/4SM BR OVC003 01/01 A3013 RMK AO2 T00110006
                 =
2015-03-02 04:54 METAR KOFP 020954Z AUTO 21005KT 3/4SM BR VV003 01/01 A3013 RMK AO2 SLP203
                 T00060006 =
2015-03-02 02:54 METAR KOFP 020754Z AUTO 22004KT 1/2SM FG VV002 01/01 A3014 RMK AO2 SLP209
                 T00060006 =
2015-03-02 02:04 METAR KOFP 020704Z AUTO 20007KT 3/4SM BR VV003 01/01 A3017 RMK AO2 T00060006 =
2015-03-02 01:54 METAR KOFP 020654Z AUTO 21005KT 1SM BR OVC002 01/01 A3018 RMK AO2 SLP221
                 T00060006 =
2015-03-02 01:51 METAR KOFP 020651Z AUTO 22005KT 1 1/4SM BR OVC002 01/01 A3018 RMK AO2 =
2015-03-02 01:42 METAR KOFP 020642Z AUTO 22004KT 1 1/2SM BR OVC003 01/01 A3018 RMK AO2 T00060006
                 =
2015-03-02 01:32 METAR KOFP 020632Z AUTO 23006KT 2SM BR OVC003 01/01 A3019 RMK AO2 T00060006 =
2015-03-02 00:54 METAR KOFP 020554Z AUTO 24006KT 3SM BR OVC003 01/01 A3020 RMK AO2 SLP229 I6002
                 T00110006 10011 20000 55024 =
2015-03-02 00:34 METAR KOFP 020534Z AUTO 20011KT 2SM BR OVC002 01/01 A3019 RMK AO2 T00060006 =
2015-03-02 00:20 METAR KOFP 020520Z AUTO 21009KT 1 3/4SM BR OVC003 01/00 A3020 RMK AO2 T00060000
                 =
2015-03-02 00:13 METAR KOFP 020513Z AUTO 19009KT 2SM BR OVC003 01/00 A3020 RMK AO2 T00060000 =
2015-03-01 23:54 METAR KOFP 020454Z AUTO 19009KT 3SM BR OVC003 01/00 A3022 RMK AO2 PRESFR SLP234
                 T00060000 400061067 =
2015-03-01 23:44 METAR KOFP 020444Z AUTO 20007KT 2 1/2SM BR OVC003 01/00 A3024 RMK AO2 T00060000
                 =
2015-03-01 23:25 METAR KOFP 020425Z AUTO 21006KT 1 3/4SM BR OVC003 01/00 A3025 RMK AO2 T00060000
                 =
2015-03-01 23:17 METAR KOFP 020417Z AUTO 21005KT 3SM BR OVC004 01/00 A3026 RMK AO2 T00060000 =
2015-03-01 22:54 METAR KOFP 020354Z AUTO 22005KT 4SM BR OVC005 01/00 A3027 RMK AO2 SLP253
                 T00060000 =
2015-03-01 22:27 METAR KOFP 020327Z AUTO 19005KT 4SM BR OVC005 01/00 A3026 RMK AO2 CIG 003V008
                 T00060000 =
2015-03-01 21:54 METAR KOFP 020254Z AUTO 20005KT 3SM BR OVC003 00/00 A3028 RMK AO2 SLP255 I3002
                 T00000000 56024 =
2015-03-01 20:54 METAR KOFP 020154Z AUTO 22005KT 2 1/2SM BR OVC003 00/M01 A3030 RMK AO2 SLP262
                 I1001 T00001006 =
2015-03-01 20:31 METAR KOFP 020131Z AUTO 22004KT 2SM BR OVC002 00/M01 A3031 RMK AO2 I1000
                 T00001006 =
2015-03-01 19:54 METAR KOFP 020054Z AUTO 18006KT 1 1/2SM BR OVC002 00/M01 A3031 RMK AO2 SLP265
                 I1001 T00001006 =
2015-03-01 19:32 METAR KOFP 020032Z AUTO 17005KT 1 3/4SM BR OVC003 00/M01 A3032 RMK AO2 PRESFR
                 I1000 T00001006 =
2015-03-01 18:54 METAR KOFP 012354Z AUTO 00000KT 2 1/2SM BR OVC003 00/M01 A3035 RMK AO2 SLP281
                 60018 I1001 I6017 T00001006 10000 21022 56022 =
2015-03-01 17:54 METAR KOFP 012254Z AUTO 19004KT 3SM BR OVC004 M01/M01 A3037 RMK AO2 FZRAE24
                 SLP285 P0001 I1002 T10061011 =
2015-03-01 17:38 METAR KOFP 012238Z AUTO 21003KT 4SM BR OVC003 M01/M01 A3037 RMK AO2 FZRAE24 CIG
                 003V007 P0001 I1002 T10061011 =
2015-03-01 17:31 METAR KOFP 012231Z AUTO 00000KT 2 1/2SM BR OVC003 M01/M01 A3037 RMK AO2 FZRAE24
                 P0001 I1002 T10061011 =
2015-03-01 17:24 METAR KOFP 012224Z AUTO 24003KT 1 3/4SM BR OVC004 M01/M01 A3038 RMK AO2 FZRAE24
                 P0001 I1002 T10061011 =
2015-03-01 17:12 METAR KOFP 012212Z AUTO 17004KT 1SM -FZRA BR OVC004 M01/M01 A3037 RMK AO2 P0001
                 I1002 T10061011 =
2015-03-01 17:01 METAR KOFP 012201Z AUTO 18003KT 1 3/4SM -FZRA BR OVC004 M01/M01 A3038 RMK AO2
                 P0000 I1000 T10061011 =
2015-03-01 16:54 METAR KOFP 012154Z AUTO 00000KT 2SM -FZRA BR OVC004 M01/M01 A3039 RMK AO2
                 UPE07FZRAB07 SLP292 P0005 I1003 T10061011 =
2015-03-01 16:45 METAR KOFP 012145Z AUTO 00000KT 1 3/4SM -FZRA BR OVC003 M01/M01 A3039 RMK AO2
                 UPE07FZRAB07 P0004 I1002 T10061011 =
2015-03-01 16:21 METAR KOFP 012121Z AUTO 00000KT 1 1/4SM -FZRA BR BKN004 OVC024 M01/M01 A3039 RMK
                 AO2 UPE07FZRAB07 PRESFR P0002 I1002 T10061011 =
2015-03-01 16:07 METAR KOFP 012107Z AUTO VRB04KT 1 3/4SM -FZRA BR SCT004 OVC022 M01/M02 A3041 RMK
                 AO2 UPE07FZRAB07 P0001 I1001 T10061017 =
2015-03-01 15:54 METAR KOFP 012054Z AUTO 13004KT 2SM UP BR SCT005 OVC022 M01/M02 A3042 RMK AO2
                 UPB54FZRAE54 SLP303 P0003 60012 I1003 I3011 T10061017 56024 =
2015-03-01 15:45 METAR KOFP 012045Z AUTO 12005KT 2SM -FZRA BR SCT005 OVC022 M01/M02 A3042 RMK AO2
                 P0003 I1003 T10061017 =
2015-03-01 15:36 METAR KOFP 012036Z AUTO 14003KT 2SM -FZRA BR BKN005 OVC022 M01/M02 A3044 RMK AO2
                 P0002 I1002 T10111017 =
2015-03-01 15:21 METAR KOFP 012021Z AUTO 00000KT 1 1/2SM -FZRA BR BKN005 OVC023 M01/M02 A3045 RMK
                 AO2 P0002 I1001 T10111017 =
2015-03-01 15:09 METAR KOFP 012009Z AUTO 00000KT 2SM -FZRA BR BKN006 OVC023 M01/M02 A3045 RMK AO2
                 P0001 I1001 T10111022 =
2015-03-01 14:54 METAR KOFP 011954Z AUTO 00000KT 1 1/2SM -FZRA BR BKN006 OVC023 M01/M02 A3045 RMK
                 AO2 SLP315 P0005 I1006 T10111022 =
2015-03-01 14:32 METAR KOFP 011932Z AUTO 00000KT 2SM -FZRA BR BKN005 OVC024 M01/M02 A3047 RMK AO2
                 P0004 I1005 T10111022 =
2015-03-01 14:19 METAR KOFP 011919Z AUTO 17003KT 1 3/4SM FZRA BR BKN005 BKN009 OVC018 M02/M02
                 A3048 RMK AO2 P0003 I1002 T10171022 =
2015-03-01 14:08 METAR KOFP 011908Z AUTO 00000KT 2SM FZRA BR BKN006 OVC018 M01/M03 A3049 RMK AO2
                 P0001 I1001 T10111028 =
2015-03-01 13:54 METAR KOFP 011854Z AUTO 00000KT 3SM -FZRA BR BKN006 OVC019 M02/M03 A3049 RMK AO2
                 UPB12E41FZRAE12B41 SLP328 P0004 I1002 T10171028 =
2015-03-01 13:45 METAR KOFP 011845Z AUTO 00000KT 1 3/4SM -FZRA BR OVC006 M02/M03 A3049 RMK AO2
                 UPB12E41FZRAE12B41 PRESFR P0004 I1002 T10171028 =
2015-03-01 13:32 METAR KOFP 011832Z AUTO 00000KT 2 1/2SM UP BR OVC006 M02/M03 A3051 RMK AO2
                 UPB12FZRAE12 P0004 I1002 T10171028 =
2015-03-01 13:24 METAR KOFP 011824Z AUTO 00000KT 1 3/4SM UP BR OVC005 M02/M03 A3051 RMK AO2
                 UPB12FZRAE12 P0004 I1002 T10171033 =
2015-03-01 13:12 METAR KOFP 011812Z AUTO 00000KT 1 1/4SM UP BR OVC005 M02/M03 A3052 RMK AO2
                 UPB12FZRAE12 P0003 I1001 T10171028 =
2015-03-01 13:00 METAR KOFP 011800Z AUTO 00000KT 1 1/4SM FZRA BR OVC005 M02/M03 A3053 RMK AO2
                 P0002 I1001 T10221033 =
2015-03-01 12:53 METAR KOFP 011753Z AUTO 00000KT 1 1/2SM -FZRA BR OVC005 M02/M03 A3054 RMK AO2
                 SLP344 P0003 60009 I1002 I6007 T10171033 11017 21033 58029 =
2015-03-01 12:52 METAR KOFP 011752Z AUTO 00000KT 1 3/4SM -FZRA BR OVC005 M02/M03 A3054 RMK AO2
                 P0003 I1002 =
2015-03-01 12:43 METAR KOFP 011743Z AUTO 00000KT 2SM BR OVC005 M02/M03 A3054 RMK AO2 FZRAE40
                 PRESFR P0003 I1002 T10221033 =
2015-03-01 12:04 METAR KOFP 011704Z AUTO 00000KT 1 3/4SM -FZRA BR BKN006 OVC027 M02/M04 A3057 RMK
                 AO2 P0000 I1000 T10221039 =
2015-03-01 11:54 METAR KOFP 011654Z AUTO 00000KT 2SM -FZRA BR FEW006 OVC027 M02/M04 A3056 RMK AO2
                 UPE04FZRAB04 SLP352 P0003 I1003 T10221044 =
2015-03-01 11:47 METAR KOFP 011647Z AUTO 00000KT 2 1/2SM -FZRA BR OVC027 M02/M04 A3057 RMK AO2
                 UPE04FZRAB04 P0003 I1002 T10221044 =
2015-03-01 11:32 METAR KOFP 011632Z AUTO 00000KT 2 1/2SM -FZRA BR SCT023 OVC030 M02/M04 A3058 RMK
                 AO2 UPE04FZRAB04 P0002 I1002 T10221044 =
2015-03-01 11:26 METAR KOFP 011626Z AUTO 00000KT 3SM -FZRA BR BKN024 OVC030 M03/M05 A3059 RMK AO2
                 UPE04FZRAB04 P0002 I1001 T10281050 =
2015-03-01 11:10 METAR KOFP 011610Z AUTO 00000KT 2SM -FZRA BR FEW008 OVC025 M03/M04 A3060 RMK AO2
                 UPE04FZRAB04 P0001 I1000 T10281044 =
2015-03-01 10:54 METAR KOFP 011554Z AUTO 00000KT 3SM UP BR OVC027 M03/M05 A3061 RMK AO2
                 UPB45FZRAE17 SLP369 P0001 I1001 T10281050 =
2015-03-01 10:23 METAR KOFP 011523Z AUTO 06003KT 6SM OVC029 M03/M06 A3061 RMK AO2 FZRAE17 P0000
                 I1001 T10281056 =
2015-03-01 10:01 METAR KOFP 011501Z AUTO 00000KT 7SM -FZRA OVC029 M03/M06 A3063 RMK AO2 P0000
                 I1000 T10281056 =
2015-03-01 09:54 METAR KOFP 011454Z AUTO 07003KT 7SM -FZRA OVC030 M03/M06 A3063 RMK AO2
                 UPE19FZRAB19 SLP374 P0002 60002 I1001 I3001 T10281056 56012 =
2015-03-01 09:50 METAR KOFP 011450Z AUTO 07003KT 6SM -FZRA OVC030 M03/M06 A3063 RMK AO2
                 UPE19FZRAB19 P0002 I1001 =
2015-03-01 09:25 METAR KOFP 011425Z AUTO 08003KT 3SM -FZRA OVC024 M03/M06 A3064 RMK AO2
                 UPE19FZRAB19 P0001 I1001 T10281061 =
2015-03-01 08:54 METAR KOFP 011354Z AUTO 35003KT 6SM UP OVC027 M03/M08 A3065 RMK AO2 UPB45 SLP382
                 P0000 T10281078 =
2015-03-01 08:31 METAR KOFP 011331Z AUTO 00000KT 10SM OVC028 M03/M08 A3066 RMK AO2 T10281083 =
2015-03-01 07:54 METAR KOFP 011254Z AUTO 00000KT 10SM OVC035 M03/M08 A3066 RMK AO2 SLP385
                 T10281083 =
2015-03-01 06:54 METAR KOFP 011154Z AUTO 00000KT 10SM OVC038 M03/M09 A3066 RMK AO2 SLP385
                 T10331089 11033 21067 56004 =

Support USWX by starting your Amazon purchase here.